createdAt,value
2018-04-25T00:00:02.092Z,55.80
2018-04-25T00:02:28.231Z,56.10
2018-04-25T00:04:54.390Z,56.10
2018-04-25T00:07:20.512Z,56.10
2018-04-25T00:09:46.751Z,56.20
2018-04-25T00:12:12.887Z,56.40
2018-04-25T00:14:39.088Z,56.40
2018-04-25T00:17:05.259Z,56.60
2018-04-25T00:19:31.852Z,56.70
2018-04-25T00:21:58.099Z,56.50
2018-04-25T00:24:24.305Z,56.30
2018-04-25T00:26:50.392Z,56.30
2018-04-25T00:29:16.516Z,56.50
2018-04-25T00:31:42.658Z,56.50
2018-04-25T00:34:09.550Z,56.50
2018-04-25T00:36:35.728Z,56.50
2018-04-25T00:39:01.855Z,56.60
2018-04-25T00:41:28.737Z,56.70
2018-04-25T00:43:54.907Z,56.60
2018-04-25T00:46:21.056Z,56.90
2018-04-25T00:48:47.959Z,57.10
2018-04-25T00:51:14.077Z,57.00
2018-04-25T00:53:40.263Z,57.10
2018-04-25T00:56:06.445Z,57.00
2018-04-25T00:58:32.617Z,57.00
2018-04-25T01:00:58.763Z,57.10
2018-04-25T01:03:24.944Z,57.20
2018-04-25T01:05:51.855Z,57.30
2018-04-25T01:08:17.998Z,57.30
2018-04-25T01:10:44.163Z,57.30
2018-04-25T01:13:10.342Z,57.80
2018-04-25T01:15:37.290Z,57.30
2018-04-25T01:18:03.444Z,57.40
2018-04-25T01:20:29.839Z,57.50
2018-04-25T01:22:56.243Z,57.80
2018-04-25T01:25:30.209Z,58.00
2018-04-25T01:28:00.766Z,58.00
2018-04-25T01:30:37.884Z,58.00
2018-04-25T01:33:04.072Z,58.00
2018-04-25T01:35:30.213Z,58.10
2018-04-25T01:38:00.197Z,58.00
2018-04-25T01:40:26.407Z,58.10
2018-04-25T01:42:52.574Z,58.00
2018-04-25T01:48:31.564Z,58.50
2018-04-25T01:50:57.569Z,58.30
2018-04-25T01:53:35.965Z,58.30
2018-04-25T01:56:14.206Z,58.40
2018-04-25T01:58:52.659Z,58.60
2018-04-25T02:01:18.595Z,58.40
2018-04-25T02:03:57.593Z,58.60
2018-04-25T02:06:23.740Z,58.70
2018-04-25T02:08:49.918Z,58.50
2018-04-25T02:11:16.095Z,58.50
2018-04-25T02:13:42.236Z,58.80
2018-04-25T02:16:08.353Z,58.90
2018-04-25T02:18:34.520Z,58.80
2018-04-25T02:21:00.705Z,59.00
2018-04-25T02:23:26.812Z,59.30
2018-04-25T02:25:52.961Z,59.20
2018-04-25T02:28:19.045Z,59.80
2018-04-25T02:30:45.929Z,59.50
2018-04-25T02:33:12.075Z,59.50
2018-04-25T02:35:38.240Z,59.60
2018-04-25T02:38:04.355Z,59.60
2018-04-25T02:40:31.237Z,59.20
2018-04-25T02:42:57.379Z,59.10
2018-04-25T02:45:23.520Z,59.40
2018-04-25T02:47:49.648Z,59.40
2018-04-25T02:50:15.794Z,59.70
2018-04-25T02:52:42.039Z,59.80
2018-04-25T02:55:08.153Z,59.90
2018-04-25T02:57:35.036Z,59.70
2018-04-25T03:00:01.175Z,59.70
2018-04-25T03:02:27.296Z,59.60
2018-04-25T03:04:53.415Z,59.60
2018-04-25T03:07:19.632Z,60.10
2018-04-25T03:09:45.991Z,60.90
2018-04-25T03:12:12.129Z,60.50
2018-04-25T03:14:38.243Z,60.60
2018-04-25T03:17:04.391Z,60.70
2018-04-25T03:19:31.294Z,60.50
2018-04-25T03:21:57.507Z,60.40
2018-04-25T03:24:23.675Z,60.50
2018-04-25T03:26:49.788Z,60.80
2018-04-25T03:29:15.907Z,60.70
2018-04-25T03:31:42.046Z,60.30
2018-04-25T03:34:08.200Z,60.40
2018-04-25T03:36:34.328Z,60.40
2018-04-25T03:39:00.438Z,60.50
2018-04-25T03:41:27.307Z,60.20
2018-04-25T03:43:53.445Z,60.10
2018-04-25T03:46:20.281Z,60.50
2018-04-25T03:48:46.426Z,60.50
2018-04-25T03:51:12.526Z,60.30
2018-04-25T03:53:38.660Z,60.40
2018-04-25T03:56:04.858Z,60.30
2018-04-25T03:58:30.979Z,60.30
2018-04-25T04:00:57.111Z,60.10
2018-04-25T04:03:23.964Z,60.20
2018-04-25T04:05:50.140Z,60.30
2018-04-25T04:08:16.278Z,60.40
2018-04-25T04:10:42.480Z,59.80
2018-04-25T04:13:08.593Z,59.70
2018-04-25T04:15:34.707Z,59.60
2018-04-25T04:18:00.806Z,60.10
2018-04-25T04:20:27.672Z,60.40
2018-04-25T04:22:53.872Z,60.40
2018-04-25T04:25:20.024Z,60.80
2018-04-25T04:27:46.134Z,60.60
2018-04-25T04:30:12.244Z,60.70
2018-04-25T04:32:39.078Z,60.50
2018-04-25T04:35:05.262Z,60.50
2018-04-25T04:37:31.396Z,60.60
2018-04-25T04:39:57.490Z,60.60
2018-04-25T04:42:23.658Z,60.60
2018-04-25T04:44:49.784Z,61.00
2018-04-25T04:47:15.956Z,60.80
2018-04-25T04:49:42.061Z,60.60
2018-04-25T04:52:08.187Z,60.80
2018-04-25T04:54:35.082Z,60.90
2018-04-25T04:57:01.223Z,60.90
2018-04-25T04:59:27.335Z,60.90
2018-04-25T05:01:53.494Z,61.20
2018-04-25T05:04:19.634Z,61.20
2018-04-25T05:06:46.498Z,61.30
2018-04-25T05:09:12.602Z,61.20
2018-04-25T05:11:38.731Z,61.20
2018-04-25T05:14:04.868Z,61.30
2018-04-25T05:16:30.996Z,61.50
2018-04-25T05:18:57.962Z,61.60
2018-04-25T05:21:24.094Z,61.60
2018-04-25T05:23:50.249Z,61.50
2018-04-25T05:26:16.405Z,62.00
2018-04-25T05:28:42.528Z,61.90
2018-04-25T05:31:08.660Z,61.70
2018-04-25T05:33:34.807Z,61.40
2018-04-25T05:36:00.910Z,61.90
2018-04-25T05:38:27.059Z,61.80
2018-04-25T05:40:53.179Z,62.50
2018-04-25T05:43:19.306Z,61.40
2018-04-25T05:45:45.426Z,62.90
2018-04-25T05:48:11.692Z,63.00
2018-04-25T05:50:37.830Z,63.40
2018-04-25T05:53:03.985Z,63.90
2018-04-25T05:55:30.112Z,63.80
2018-04-25T05:57:56.320Z,63.40
2018-04-25T06:00:22.423Z,64.00
2018-04-25T06:02:48.532Z,63.50
2018-04-25T06:05:14.673Z,63.00
2018-04-25T06:07:40.836Z,62.40
2018-04-25T06:10:06.985Z,63.10
2018-04-25T06:12:33.170Z,63.00
2018-04-25T06:14:59.299Z,62.50
2018-04-25T06:17:26.170Z,62.20
2018-04-25T06:19:52.319Z,62.30
2018-04-25T06:22:18.432Z,61.50
2018-04-25T06:24:44.584Z,61.20
2018-04-25T06:27:10.730Z,60.60
2018-04-25T06:29:37.598Z,59.70
2018-04-25T06:32:03.825Z,59.70
2018-04-25T06:34:30.043Z,59.60
2018-04-25T06:36:56.192Z,59.70
2018-04-25T06:39:22.405Z,59.60
2018-04-25T06:41:48.488Z,59.80
2018-04-25T06:44:14.591Z,59.80
2018-04-25T06:46:40.732Z,59.70
2018-04-25T06:49:06.915Z,58.80
2018-04-25T06:51:33.087Z,58.80
2018-04-25T06:53:59.239Z,58.20
2018-04-25T06:56:25.354Z,58.20
2018-04-25T06:58:51.527Z,58.20
2018-04-25T07:01:17.650Z,57.60
2018-04-25T07:03:43.953Z,57.20
2018-04-25T07:06:10.115Z,57.40
2018-04-25T07:08:36.287Z,57.20
2018-04-25T07:11:02.409Z,57.10
2018-04-25T07:13:28.645Z,57.20
2018-04-25T07:15:54.685Z,57.00
2018-04-25T07:18:20.833Z,57.00
2018-04-25T07:20:46.987Z,56.80
2018-04-25T07:23:13.114Z,57.00
2018-04-25T07:25:39.222Z,57.00
2018-04-25T07:28:05.567Z,57.00
2018-04-25T07:30:31.703Z,56.70
2018-04-25T07:33:01.778Z,56.60
2018-04-25T07:35:27.949Z,56.80
2018-04-25T07:37:54.778Z,56.10
2018-04-25T07:40:20.913Z,56.00
2018-04-25T07:42:47.079Z,55.40
2018-04-25T07:45:13.222Z,56.00
2018-04-25T07:47:39.345Z,55.40
2018-04-25T07:50:05.495Z,55.40
2018-04-25T07:52:31.591Z,55.50
2018-04-25T07:54:57.798Z,55.00
2018-04-25T07:57:24.125Z,55.30
2018-04-25T07:59:50.324Z,55.30
2018-04-25T08:02:16.460Z,55.40
2018-04-25T08:04:42.597Z,55.10
2018-04-25T08:07:08.708Z,55.00
2018-04-25T08:09:35.586Z,54.60
2018-04-25T08:12:01.778Z,54.60
2018-04-25T08:14:41.967Z,54.50
2018-04-25T08:17:20.242Z,54.50
2018-04-25T08:19:58.587Z,54.70
2018-04-25T08:22:24.758Z,54.60
2018-04-25T08:24:50.887Z,54.50
2018-04-25T08:27:17.066Z,54.90
2018-04-25T08:29:43.243Z,55.60
2018-04-25T08:32:09.366Z,55.20
2018-04-25T08:34:35.667Z,54.90
2018-04-25T08:37:01.863Z,54.60
2018-04-25T08:39:28.091Z,54.90
2018-04-25T08:41:54.237Z,54.20
2018-04-25T08:44:20.346Z,54.40
2018-04-25T08:46:46.490Z,55.00
2018-04-25T08:49:12.618Z,55.20
2018-04-25T08:51:38.848Z,55.10
2018-04-25T08:54:05.082Z,55.00
2018-04-25T08:56:31.334Z,54.40
2018-04-25T08:58:57.526Z,54.40
2018-04-25T09:01:23.667Z,54.60
2018-04-25T09:03:49.871Z,54.50
2018-04-25T09:06:16.216Z,53.70
2018-04-25T09:08:42.450Z,54.30
2018-04-25T09:11:08.608Z,53.80
2018-04-25T09:13:35.489Z,53.50
2018-04-25T09:16:01.699Z,53.40
2018-04-25T09:18:27.864Z,53.50
2018-04-25T09:20:54.014Z,53.50
2018-04-25T09:23:21.315Z,54.10
2018-04-25T09:25:47.495Z,54.00
2018-04-25T09:28:18.391Z,53.70
2018-04-25T09:30:45.453Z,53.50
2018-04-25T09:33:11.689Z,52.00
2018-04-25T09:35:37.951Z,52.40
2018-04-25T09:38:04.395Z,52.70
2018-04-25T09:40:30.631Z,52.20
2018-04-25T09:42:56.841Z,52.20
2018-04-25T09:45:23.523Z,52.10
2018-04-25T09:47:50.048Z,50.70
2018-04-25T09:50:16.359Z,50.70
2018-04-25T09:52:44.856Z,50.80
2018-04-25T09:55:11.263Z,51.30
2018-04-25T09:57:42.477Z,50.80
2018-04-25T10:00:10.291Z,50.00
2018-04-25T10:02:36.671Z,50.50
2018-04-25T10:05:03.777Z,51.30
2018-04-25T10:07:30.067Z,51.30
2018-04-25T10:09:56.895Z,51.10
2018-04-25T10:12:24.058Z,51.30
2018-04-25T10:14:50.388Z,51.30
2018-04-25T10:17:17.284Z,51.10
2018-04-25T10:19:47.647Z,51.20
2018-04-25T10:22:13.906Z,50.80
2018-04-25T10:24:40.872Z,49.80
2018-04-25T10:27:11.839Z,48.80
2018-04-25T10:29:38.160Z,48.80
2018-04-25T10:32:05.171Z,48.40
2018-04-25T10:34:31.339Z,48.40
2018-04-25T10:36:58.219Z,48.60
2018-04-25T10:39:25.412Z,48.80
2018-04-25T10:41:51.750Z,49.10
2018-04-25T10:44:18.012Z,49.00
2018-04-25T10:46:44.269Z,48.30
2018-04-25T10:49:14.964Z,48.00
2018-04-25T10:51:42.994Z,48.30
2018-04-25T10:54:14.179Z,48.20
2018-04-25T10:56:40.415Z,47.90
2018-04-25T10:59:06.706Z,48.20
2018-04-25T11:01:33.092Z,48.60
2018-04-25T11:03:59.792Z,49.30
2018-04-25T11:06:30.784Z,49.50
2018-04-25T11:08:57.136Z,49.50
2018-04-25T11:11:23.692Z,49.90
2018-04-25T11:13:50.093Z,50.40
2018-04-25T11:16:17.114Z,49.60
2018-04-25T11:18:44.262Z,49.70
2018-04-25T11:21:10.924Z,49.70
2018-04-25T11:23:37.766Z,49.90
2018-04-25T11:26:08.326Z,50.10
2018-04-25T11:28:35.322Z,49.30
2018-04-25T11:31:02.486Z,49.20
2018-04-25T11:33:29.629Z,49.10
2018-04-25T11:35:56.827Z,49.50
2018-04-25T11:38:27.067Z,50.00
2018-04-25T11:40:58.359Z,51.20
2018-04-25T11:43:25.463Z,51.00
2018-04-25T11:45:51.985Z,51.50
2018-04-25T11:48:21.767Z,50.70
2018-04-25T11:50:48.036Z,50.60
2018-04-25T11:53:14.293Z,49.90
2018-04-25T11:55:42.651Z,50.10
2018-04-25T11:58:09.323Z,50.30
2018-04-25T12:00:36.645Z,51.10
2018-04-25T12:03:04.003Z,51.00
2018-04-25T12:08:09.043Z,50.80
2018-04-25T12:10:35.259Z,51.10
2018-04-25T12:13:09.402Z,50.60
2018-04-25T12:15:35.545Z,50.60
2018-04-25T12:18:01.770Z,51.00
2018-04-25T12:20:29.659Z,50.80
2018-04-25T12:22:56.183Z,51.20
2018-04-25T12:25:30.643Z,51.10
2018-04-25T12:27:57.783Z,51.40
2018-04-25T12:32:59.832Z,52.10
2018-04-25T12:35:35.706Z,51.60
2018-04-25T12:40:43.789Z,51.20
2018-04-25T12:43:12.608Z,51.00
2018-04-25T12:45:42.014Z,50.60
2018-04-25T12:51:05.558Z,52.40
2018-04-25T12:53:32.468Z,52.40
2018-04-25T12:56:05.021Z,54.30
2018-04-25T12:58:31.926Z,55.00
2018-04-25T13:00:58.288Z,54.50
2018-04-25T13:03:30.492Z,54.10
2018-04-25T13:05:56.927Z,54.40
2018-04-25T13:08:23.949Z,55.10
2018-04-25T13:10:56.632Z,54.80
2018-04-25T13:13:24.210Z,54.90
2018-04-25T13:15:55.783Z,54.70
2018-04-25T13:18:32.866Z,54.40
2018-04-25T13:20:59.192Z,54.10
2018-04-25T13:23:25.519Z,53.00
2018-04-25T13:25:54.850Z,51.40
2018-04-25T13:28:25.980Z,51.00
2018-04-25T13:30:52.662Z,51.40
2018-04-25T13:33:20.088Z,51.30
2018-04-25T13:35:47.255Z,50.60
2018-04-25T13:38:14.984Z,51.00
2018-04-25T13:40:42.408Z,51.00
2018-04-25T13:43:09.085Z,50.80
2018-04-25T13:45:35.379Z,51.20
2018-04-25T13:48:03.091Z,51.80
2018-04-25T13:50:31.447Z,52.30
2018-04-25T13:53:04.481Z,51.50
2018-04-25T13:55:31.351Z,51.10
2018-04-25T13:57:57.702Z,50.90
2018-04-25T14:00:24.578Z,49.70
2018-04-25T14:02:51.276Z,49.00
2018-04-25T14:05:17.500Z,47.20
2018-04-25T14:07:46.523Z,45.60
2018-04-25T14:10:13.908Z,46.50
2018-04-25T14:16:18.186Z,48.80
2018-04-25T14:18:46.855Z,48.00
2018-04-25T14:23:56.245Z,47.90
2018-04-25T14:26:27.032Z,46.30
2018-04-25T14:34:48.706Z,46.20
2018-04-25T14:37:15.335Z,47.00
2018-04-25T14:42:16.906Z,45.50
2018-04-25T14:53:09.569Z,44.40
2018-04-25T14:55:36.993Z,44.70
2018-04-25T14:58:12.887Z,45.50
2018-04-25T15:00:49.419Z,45.40
2018-04-25T15:03:16.765Z,46.50
2018-04-25T15:05:48.717Z,47.00
2018-04-25T15:08:42.107Z,47.60
2018-04-25T15:11:14.288Z,47.70
2018-04-25T15:13:54.095Z,47.90
2018-04-25T15:16:31.964Z,48.70
2018-04-25T15:29:35.292Z,51.90
2018-04-25T15:32:01.615Z,52.00
2018-04-25T15:34:29.394Z,53.00
2018-04-25T15:36:56.359Z,55.20
2018-04-25T15:39:38.869Z,55.20
2018-04-25T15:42:05.639Z,56.00
2018-04-25T15:44:34.662Z,56.80
2018-04-25T15:47:01.854Z,57.00
2018-04-25T15:49:28.078Z,57.00
2018-04-25T15:51:54.404Z,57.00
2018-04-25T15:54:20.646Z,57.00
2018-04-25T15:56:49.712Z,56.60
2018-04-25T15:59:16.961Z,56.50
2018-04-25T16:01:44.837Z,58.10
2018-04-25T16:04:13.589Z,58.10
2018-04-25T16:06:41.843Z,57.80
2018-04-25T16:09:08.974Z,58.20
2018-04-25T16:11:45.606Z,57.30
2018-04-25T16:14:13.832Z,57.60
2018-04-25T16:16:41.935Z,57.60
2018-04-25T16:19:10.400Z,57.80
2018-04-25T16:21:36.913Z,57.70
2018-04-25T16:24:03.156Z,57.70
2018-04-25T16:26:29.469Z,57.60
2018-04-25T16:28:55.742Z,57.80
2018-04-25T16:31:22.876Z,57.70
2018-04-25T16:33:50.142Z,56.90
2018-04-25T16:36:16.970Z,56.90
2018-04-25T16:38:44.928Z,56.80
2018-04-25T16:41:11.381Z,56.80
2018-04-25T16:43:39.175Z,56.90
2018-04-25T16:48:44.251Z,56.40
2018-04-25T16:51:11.536Z,56.70
2018-04-25T16:53:38.519Z,57.00
2018-04-25T16:56:05.501Z,56.60
2018-04-25T16:58:32.264Z,56.70
2018-04-25T17:01:00.408Z,56.70
2018-04-25T17:03:37.643Z,56.80
2018-04-25T17:08:58.694Z,57.10
2018-04-25T17:17:13.943Z,57.70
2018-04-25T17:58:54.249Z,64.10
2018-04-25T18:15:47.566Z,64.70
2018-04-25T18:18:23.061Z,64.50
2018-04-25T20:16:47.617Z,60.40
2018-04-25T20:19:23.599Z,60.90
2018-04-25T20:48:10.080Z,60.50
2018-04-25T20:50:40.123Z,60.10
2018-04-25T20:55:58.268Z,60.30
2018-04-25T20:58:32.053Z,60.30
2018-04-25T21:00:58.422Z,60.20
2018-04-25T21:15:36.608Z,60.40
2018-04-25T21:18:02.884Z,60.00
2018-04-25T21:20:29.075Z,60.30
2018-04-25T21:22:56.039Z,60.40
2018-04-25T21:25:22.174Z,60.30
2018-04-25T21:27:48.455Z,60.60
2018-04-25T21:30:15.354Z,60.80
2018-04-25T21:32:41.551Z,60.60
2018-04-25T21:35:07.706Z,60.50
2018-04-25T21:37:33.861Z,60.50
2018-04-25T21:39:59.996Z,60.70
2018-04-25T21:42:26.195Z,60.90
2018-04-25T21:44:52.534Z,60.60
2018-04-25T21:47:18.736Z,60.80
2018-04-25T21:49:44.919Z,60.70
2018-04-25T21:52:11.863Z,61.10
2018-04-25T21:54:38.655Z,61.00
2018-04-25T21:57:04.807Z,61.60
2018-04-25T21:59:31.534Z,61.60
2018-04-25T22:01:57.686Z,61.80
2018-04-25T22:04:23.828Z,61.80
2018-04-25T22:06:49.959Z,62.00
2018-04-25T22:09:16.164Z,62.10
2018-04-25T22:11:42.356Z,62.20
2018-04-25T22:14:08.536Z,63.00
2018-04-25T22:16:35.551Z,62.50
2018-04-25T22:19:01.710Z,63.20
2018-04-25T22:21:27.833Z,62.80
2018-04-25T22:23:54.022Z,63.00
2018-04-25T22:26:20.194Z,62.90
2018-04-25T22:28:46.324Z,63.00
2018-04-25T22:31:12.462Z,63.20
2018-04-25T22:33:38.625Z,63.10
2018-04-25T22:36:04.814Z,63.10
2018-04-25T22:38:31.063Z,63.40
2018-04-25T22:40:57.235Z,63.80
2018-04-25T22:43:24.289Z,64.20
2018-04-25T22:45:50.445Z,64.00
2018-04-25T22:48:16.588Z,64.50
2018-04-25T22:50:42.785Z,64.70
2018-04-25T22:53:09.012Z,64.70
2018-04-25T22:55:35.191Z,64.30
2018-04-25T22:58:01.386Z,64.40
2018-04-25T23:00:28.104Z,64.40
2018-04-25T23:02:54.475Z,64.70
2018-04-25T23:05:20.638Z,64.40
2018-04-25T23:07:46.763Z,63.90
2018-04-25T23:10:13.700Z,63.10
2018-04-25T23:12:40.638Z,63.70
2018-04-25T23:15:06.772Z,63.40
2018-04-25T23:17:32.996Z,63.20
2018-04-25T23:19:59.126Z,63.10
2018-04-25T23:22:26.046Z,63.20
2018-04-25T23:24:52.322Z,63.10
2018-04-25T23:27:18.523Z,63.20
2018-04-25T23:29:44.769Z,62.70
2018-04-25T23:32:17.186Z,62.90
2018-04-25T23:34:43.367Z,63.20
2018-04-25T23:37:09.523Z,63.00
2018-04-25T23:39:35.692Z,62.20
2018-04-25T23:42:01.820Z,62.50
2018-04-25T23:44:28.736Z,62.40
2018-04-25T23:46:54.891Z,62.20
2018-04-25T23:49:21.755Z,61.70
2018-04-25T23:51:47.888Z,61.70
2018-04-25T23:54:14.072Z,61.90
2018-04-25T23:56:40.239Z,61.90
2018-04-25T23:59:06.448Z,61.80
